Point Lay, AK (99759)

6:17 AM AKST en Febrero 22, 2017 (GMT -0900)
Point Lay | | Change Station
Aviso en curso: Winter Storm Watch

Alt 23 ft 69.73 °N, 163.01 °W | Updated 21 minutes ago

Nublado
Nublado
-19 ° F
Sensación térmica -41 ° F
N
12
Viento Variable Viento desde SO

Hoy
Alta -- | Baja -- ° F
--% Posibilidad de precipitaciones
Ayer
Alta -- | Baja -- ° F
Precip. -- pul
Presión 30.26 pul
Visibilidad 9.0 Millas
Nubes Muy nublado 10000 ft
Vientos helados -41 ° F
Punto de rocío -23 ° F
Humedad 81%
Precipitaciones 0.00 pul
Espesor de la nieve No disponible.
9:47 AM 6:24 PM
Creciente menguante, 17% visible
METAR PPIZ 221456Z AUTO 22010KT 9SM -SN BKN100 M28/M31 A3024 RMK AO2 SLP246 P0000 60000 T12831306 53007 FZRANO TSNO
Presión 30.26 pul
Visibilidad 9.0 Millas
Nubes Muy nublado 10000 ft
Vientos helados -41 ° F
Punto de rocío -23 ° F
Humedad 81%
Precipitaciones 0.00 pul
Espesor de la nieve No disponible.
9:47 AM 6:24 PM
Creciente menguante, 17% visible
METAR PPIZ 221456Z AUTO 22010KT 9SM -SN BKN100 M28/M31 A3024 RMK AO2 SLP246 P0000 60000 T12831306 53007 FZRANO TSNO

Get Your Daily Forecast Email!

Thanks for signing up!

Be on the lookout for a verification email in your inbox.

You'll start receiving the daily forecast at 8 AM.

×

10-Day Weather Forecast

Almanac

Astronomía

Feb. 22, 2017 Salida Puesta
Hora real
Crepúsculo civil
Crepúsculo náutico
Crepúsculo astronómico
Luna
Horas de luz
Horas de luz
Tomorrow will be .
, % of the Moon is Illuminated

Extremos de hoy

Máximos del estado Bajos del estado

Community

WunderPhotos

Upload Photos

1,962,540 ¡fotos cargadas!

WunderBlog® & News

Nearby

Calidad del aire

  Calidad del aire Índice AQ Contaminante
Not available.

Grosos de nieve

Estación Profundido Altura

Actividad de terremotos

Ciudad Distance Mag. Tiempo y dato
Magnitud mínima muestra es 2,5.

Temperaturas de aguas costeras

Lugar Temperatura

Stations

Estaciones meteorológicas cercanas

Ubicación de la estación Temp. Vientos helados Punto de rocío Humedad Viento Precip. Alt Actualizado Tipo
                   

Watches & Warnings

Winter Storm Watch
Issued: 4:44 AM AKST Feb. 22, 2017 – National Weather Service

... Winter Storm Watch remains in effect from Thursday afternoon
through Friday afternoon...

* wind... east winds 25 to 35 mph with gusts to 60 mph with
strongest gusts near Cape Lisburne.

* Visibility... one half mile or less at times.

* Snow... 4 to 6 inches.

* Wind chill... around 55 below.

* Timing... winds and snow will increase Thursday afternoon and
will continue through Friday afternoon reducing visibility to
one half mile or less at times.

* Impacts... travel and outdoor activities will be difficult.

Precautionary/preparedness actions...

A Winter Storm Watch means that there is a potential for one or
more significant winter weather hazards.